sensor_id;sensor_type;location;lat;lon;timestamp;P1;durP1;ratioP1;P2;durP2;ratioP2
14377;SDS011;7272;53.668;9.578;2023-12-07T00:00:39;71.00;;;27.30;;
14377;SDS011;7272;53.668;9.578;2023-12-07T00:03:41;61.60;;;24.40;;
14377;SDS011;7272;53.668;9.578;2023-12-07T00:06:42;48.97;;;22.83;;
14377;SDS011;7272;53.668;9.578;2023-12-07T00:09:44;65.63;;;25.27;;
14377;SDS011;7272;53.668;9.578;2023-12-07T00:12:45;48.90;;;22.67;;
14377;SDS011;7272;53.668;9.578;2023-12-07T00:15:46;52.97;;;22.17;;
14377;SDS011;7272;53.668;9.578;2023-12-07T00:18:48;41.67;;;20.63;;
14377;SDS011;7272;53.668;9.578;2023-12-07T00:21:49;67.43;;;26.13;;
14377;SDS011;7272;53.668;9.578;2023-12-07T00:24:51;45.07;;;22.07;;
14377;SDS011;7272;53.668;9.578;2023-12-07T00:27:52;45.67;;;21.67;;
14377;SDS011;7272;53.668;9.578;2023-12-07T00:30:54;45.03;;;21.97;;
14377;SDS011;7272;53.668;9.578;2023-12-07T00:33:55;39.47;;;19.87;;
14377;SDS011;7272;53.668;9.578;2023-12-07T00:36:56;43.63;;;21.53;;
14377;SDS011;7272;53.668;9.578;2023-12-07T00:39:58;55.77;;;23.37;;
14377;SDS011;7272;53.668;9.578;2023-12-07T00:42:59;57.83;;;23.43;;
14377;SDS011;7272;53.668;9.578;2023-12-07T00:46:01;51.97;;;22.47;;
14377;SDS011;7272;53.668;9.578;2023-12-07T00:49:02;51.30;;;22.37;;
14377;SDS011;7272;53.668;9.578;2023-12-07T00:52:03;50.20;;;22.73;;
14377;SDS011;7272;53.668;9.578;2023-12-07T00:55:06;54.07;;;23.33;;
14377;SDS011;7272;53.668;9.578;2023-12-07T00:58:07;38.67;;;21.23;;
14377;SDS011;7272;53.668;9.578;2023-12-07T01:01:08;38.03;;;20.43;;
14377;SDS011;7272;53.668;9.578;2023-12-07T01:04:10;31.93;;;18.90;;
14377;SDS011;7272;53.668;9.578;2023-12-07T01:07:12;35.87;;;19.77;;
14377;SDS011;7272;53.668;9.578;2023-12-07T01:10:13;30.57;;;18.50;;
14377;SDS011;7272;53.668;9.578;2023-12-07T01:13:15;37.87;;;20.03;;
14377;SDS011;7272;53.668;9.578;2023-12-07T01:16:16;30.37;;;18.27;;
14377;SDS011;7272;53.668;9.578;2023-12-07T01:19:17;34.60;;;19.13;;
14377;SDS011;7272;53.668;9.578;2023-12-07T01:22:18;29.23;;;18.23;;
14377;SDS011;7272;53.668;9.578;2023-12-07T01:25:21;31.00;;;18.50;;
14377;SDS011;7272;53.668;9.578;2023-12-07T01:28:22;32.33;;;18.73;;
14377;SDS011;7272;53.668;9.578;2023-12-07T01:31:23;28.53;;;17.47;;
14377;SDS011;7272;53.668;9.578;2023-12-07T01:34:24;31.83;;;18.13;;
14377;SDS011;7272;53.668;9.578;2023-12-07T01:37:26;33.03;;;19.23;;
14377;SDS011;7272;53.668;9.578;2023-12-07T01:40:28;34.57;;;18.83;;
14377;SDS011;7272;53.668;9.578;2023-12-07T01:43:29;30.80;;;18.70;;
14377;SDS011;7272;53.668;9.578;2023-12-07T01:46:30;26.80;;;16.50;;
14377;SDS011;7272;53.668;9.578;2023-12-07T01:49:33;27.77;;;17.30;;
14377;SDS011;7272;53.668;9.578;2023-12-07T01:52:35;31.90;;;18.87;;
14377;SDS011;7272;53.668;9.578;2023-12-07T01:55:39;24.97;;;17.07;;
14377;SDS011;7272;53.668;9.578;2023-12-07T01:58:40;24.13;;;16.53;;
14377;SDS011;7272;53.668;9.578;2023-12-07T02:01:42;28.17;;;17.30;;
14377;SDS011;7272;53.668;9.578;2023-12-07T02:04:43;27.03;;;17.63;;
14377;SDS011;7272;53.668;9.578;2023-12-07T02:07:45;27.07;;;17.00;;
14377;SDS011;7272;53.668;9.578;2023-12-07T02:10:47;21.50;;;14.43;;
14377;SDS011;7272;53.668;9.578;2023-12-07T02:13:48;28.07;;;16.70;;
14377;SDS011;7272;53.668;9.578;2023-12-07T02:16:51;26.67;;;16.73;;
14377;SDS011;7272;53.668;9.578;2023-12-07T02:20:00;24.73;;;16.07;;
14377;SDS011;7272;53.668;9.578;2023-12-07T02:23:07;30.80;;;18.73;;
14377;SDS011;7272;53.668;9.578;2023-12-07T02:30:02;35.73;;;21.23;;
14377;SDS011;7272;53.668;9.578;2023-12-07T02:33:04;35.17;;;21.17;;
14377;SDS011;7272;53.668;9.578;2023-12-07T02:36:06;25.57;;;15.10;;
14377;SDS011;7272;53.668;9.578;2023-12-07T02:39:07;27.47;;;18.17;;
14377;SDS011;7272;53.668;9.578;2023-12-07T02:42:10;23.73;;;16.00;;
14377;SDS011;7272;53.668;9.578;2023-12-07T02:45:13;26.37;;;17.63;;
14377;SDS011;7272;53.668;9.578;2023-12-07T02:48:15;22.17;;;15.37;;
14377;SDS011;7272;53.668;9.578;2023-12-07T02:51:17;31.40;;;18.63;;
14377;SDS011;7272;53.668;9.578;2023-12-07T02:54:18;24.50;;;15.57;;
14377;SDS011;7272;53.668;9.578;2023-12-07T02:57:20;28.47;;;18.17;;
14377;SDS011;7272;53.668;9.578;2023-12-07T03:00:21;23.10;;;16.50;;
14377;SDS011;7272;53.668;9.578;2023-12-07T03:03:22;30.77;;;19.37;;
14377;SDS011;7272;53.668;9.578;2023-12-07T03:06:23;26.57;;;17.93;;
14377;SDS011;7272;53.668;9.578;2023-12-07T03:09:25;31.93;;;19.53;;
14377;SDS011;7272;53.668;9.578;2023-12-07T03:12:26;27.00;;;17.60;;
14377;SDS011;7272;53.668;9.578;2023-12-07T03:15:27;27.60;;;17.73;;
14377;SDS011;7272;53.668;9.578;2023-12-07T03:18:29;28.80;;;19.20;;
14377;SDS011;7272;53.668;9.578;2023-12-07T03:21:30;25.27;;;16.20;;
14377;SDS011;7272;53.668;9.578;2023-12-07T03:24:31;29.77;;;19.57;;
14377;SDS011;7272;53.668;9.578;2023-12-07T03:27:33;24.50;;;16.17;;
14377;SDS011;7272;53.668;9.578;2023-12-07T03:30:34;23.30;;;16.53;;
14377;SDS011;7272;53.668;9.578;2023-12-07T03:33:35;23.27;;;16.10;;
14377;SDS011;7272;53.668;9.578;2023-12-07T03:36:38;23.13;;;15.27;;
14377;SDS011;7272;53.668;9.578;2023-12-07T03:39:39;29.57;;;18.10;;
14377;SDS011;7272;53.668;9.578;2023-12-07T03:42:41;21.40;;;14.87;;
14377;SDS011;7272;53.668;9.578;2023-12-07T03:45:42;30.63;;;18.83;;
14377;SDS011;7272;53.668;9.578;2023-12-07T03:48:43;23.33;;;14.73;;
14377;SDS011;7272;53.668;9.578;2023-12-07T03:51:44;28.67;;;16.97;;
14377;SDS011;7272;53.668;9.578;2023-12-07T03:54:46;23.70;;;14.87;;
14377;SDS011;7272;53.668;9.578;2023-12-07T03:57:48;22.33;;;15.60;;
14377;SDS011;7272;53.668;9.578;2023-12-07T04:00:49;25.53;;;16.90;;
14377;SDS011;7272;53.668;9.578;2023-12-07T04:03:50;26.23;;;16.53;;
14377;SDS011;7272;53.668;9.578;2023-12-07T04:06:51;20.53;;;14.70;;
14377;SDS011;7272;53.668;9.578;2023-12-07T04:09:53;17.33;;;13.67;;
14377;SDS011;7272;53.668;9.578;2023-12-07T04:12:55;17.57;;;12.77;;
14377;SDS011;7272;53.668;9.578;2023-12-07T04:15:56;18.00;;;12.53;;
14377;SDS011;7272;53.668;9.578;2023-12-07T04:18:57;23.30;;;14.67;;
14377;SDS011;7272;53.668;9.578;2023-12-07T04:21:58;17.47;;;12.67;;
14377;SDS011;7272;53.668;9.578;2023-12-07T04:24:59;20.07;;;12.60;;
14377;SDS011;7272;53.668;9.578;2023-12-07T04:28:01;22.03;;;14.77;;
14377;SDS011;7272;53.668;9.578;2023-12-07T04:31:03;16.03;;;12.60;;
14377;SDS011;7272;53.668;9.578;2023-12-07T04:34:05;20.03;;;14.57;;
14377;SDS011;7272;53.668;9.578;2023-12-07T04:37:06;20.47;;;14.67;;
14377;SDS011;7272;53.668;9.578;2023-12-07T04:40:08;18.07;;;12.93;;
14377;SDS011;7272;53.668;9.578;2023-12-07T04:43:11;23.23;;;14.73;;
14377;SDS011;7272;53.668;9.578;2023-12-07T04:46:12;16.83;;;12.97;;
14377;SDS011;7272;53.668;9.578;2023-12-07T04:49:13;15.93;;;11.80;;
14377;SDS011;7272;53.668;9.578;2023-12-07T04:52:14;15.90;;;12.20;;
14377;SDS011;7272;53.668;9.578;2023-12-07T04:55:16;16.47;;;12.37;;
14377;SDS011;7272;53.668;9.578;2023-12-07T04:58:17;21.97;;;13.97;;
14377;SDS011;7272;53.668;9.578;2023-12-07T05:01:19;23.43;;;15.67;;
14377;SDS011;7272;53.668;9.578;2023-12-07T05:04:20;22.67;;;15.20;;
14377;SDS011;7272;53.668;9.578;2023-12-07T05:07:21;21.13;;;13.83;;
14377;SDS011;7272;53.668;9.578;2023-12-07T05:10:22;22.80;;;15.37;;
14377;SDS011;7272;53.668;9.578;2023-12-07T05:13:24;21.83;;;15.73;;
14377;SDS011;7272;53.668;9.578;2023-12-07T05:16:26;20.63;;;14.70;;
14377;SDS011;7272;53.668;9.578;2023-12-07T05:19:27;22.77;;;15.97;;
14377;SDS011;7272;53.668;9.578;2023-12-07T05:22:28;18.50;;;13.90;;
14377;SDS011;7272;53.668;9.578;2023-12-07T05:25:29;22.97;;;15.40;;
14377;SDS011;7272;53.668;9.578;2023-12-07T05:28:31;18.27;;;12.83;;
14377;SDS011;7272;53.668;9.578;2023-12-07T05:31:33;22.17;;;15.07;;
14377;SDS011;7272;53.668;9.578;2023-12-07T05:34:34;17.13;;;13.13;;
14377;SDS011;7272;53.668;9.578;2023-12-07T05:37:35;20.37;;;15.27;;
14377;SDS011;7272;53.668;9.578;2023-12-07T05:40:37;18.50;;;13.47;;
14377;SDS011;7272;53.668;9.578;2023-12-07T05:43:40;20.83;;;14.93;;
14377;SDS011;7272;53.668;9.578;2023-12-07T05:46:42;21.17;;;14.37;;
14377;SDS011;7272;53.668;9.578;2023-12-07T05:49:44;25.60;;;15.50;;
14377;SDS011;7272;53.668;9.578;2023-12-07T05:52:45;17.47;;;13.20;;
14377;SDS011;7272;53.668;9.578;2023-12-07T05:55:47;17.77;;;13.53;;
14377;SDS011;7272;53.668;9.578;2023-12-07T05:58:49;13.87;;;12.13;;
14377;SDS011;7272;53.668;9.578;2023-12-07T06:01:51;20.33;;;14.20;;
14377;SDS011;7272;53.668;9.578;2023-12-07T06:04:53;16.17;;;12.57;;
14377;SDS011;7272;53.668;9.578;2023-12-07T06:07:55;25.27;;;15.90;;
14377;SDS011;7272;53.668;9.578;2023-12-07T06:10:56;21.33;;;14.57;;
14377;SDS011;7272;53.668;9.578;2023-12-07T06:13:58;16.47;;;13.03;;
14377;SDS011;7272;53.668;9.578;2023-12-07T06:17:00;18.37;;;12.67;;
14377;SDS011;7272;53.668;9.578;2023-12-07T06:20:01;15.60;;;12.07;;
14377;SDS011;7272;53.668;9.578;2023-12-07T06:23:03;15.63;;;11.23;;
14377;SDS011;7272;53.668;9.578;2023-12-07T06:26:05;16.67;;;12.60;;
14377;SDS011;7272;53.668;9.578;2023-12-07T06:29:07;16.73;;;13.23;;
14377;SDS011;7272;53.668;9.578;2023-12-07T06:32:08;16.60;;;12.13;;
14377;SDS011;7272;53.668;9.578;2023-12-07T06:35:11;16.20;;;12.53;;
14377;SDS011;7272;53.668;9.578;2023-12-07T06:38:12;20.63;;;15.03;;
14377;SDS011;7272;53.668;9.578;2023-12-07T06:41:14;20.07;;;14.40;;
14377;SDS011;7272;53.668;9.578;2023-12-07T06:44:17;17.73;;;12.90;;
14377;SDS011;7272;53.668;9.578;2023-12-07T06:47:18;18.10;;;13.47;;
14377;SDS011;7272;53.668;9.578;2023-12-07T06:50:19;17.30;;;13.33;;
14377;SDS011;7272;53.668;9.578;2023-12-07T06:53:21;20.33;;;13.47;;
14377;SDS011;7272;53.668;9.578;2023-12-07T06:56:22;24.03;;;15.77;;
14377;SDS011;7272;53.668;9.578;2023-12-07T06:59:24;19.70;;;14.10;;
14377;SDS011;7272;53.668;9.578;2023-12-07T07:02:25;21.50;;;13.97;;
14377;SDS011;7272;53.668;9.578;2023-12-07T07:05:26;22.97;;;15.60;;
14377;SDS011;7272;53.668;9.578;2023-12-07T07:08:27;28.10;;;17.97;;
14377;SDS011;7272;53.668;9.578;2023-12-07T07:11:29;23.07;;;15.87;;
14377;SDS011;7272;53.668;9.578;2023-12-07T07:14:30;19.23;;;14.77;;
14377;SDS011;7272;53.668;9.578;2023-12-07T07:17:32;23.93;;;14.87;;
14377;SDS011;7272;53.668;9.578;2023-12-07T07:20:33;17.13;;;12.50;;
14377;SDS011;7272;53.668;9.578;2023-12-07T07:23:34;18.10;;;14.17;;
14377;SDS011;7272;53.668;9.578;2023-12-07T07:26:36;23.50;;;15.40;;
14377;SDS011;7272;53.668;9.578;2023-12-07T07:29:39;21.17;;;14.57;;
14377;SDS011;7272;53.668;9.578;2023-12-07T07:32:40;24.27;;;16.13;;
14377;SDS011;7272;53.668;9.578;2023-12-07T07:35:41;17.43;;;13.73;;
14377;SDS011;7272;53.668;9.578;2023-12-07T07:38:43;17.93;;;13.73;;
14377;SDS011;7272;53.668;9.578;2023-12-07T07:41:44;18.20;;;13.07;;
14377;SDS011;7272;53.668;9.578;2023-12-07T07:44:46;24.90;;;16.17;;
14377;SDS011;7272;53.668;9.578;2023-12-07T07:47:47;22.47;;;15.70;;
14377;SDS011;7272;53.668;9.578;2023-12-07T07:50:48;18.23;;;13.30;;
14377;SDS011;7272;53.668;9.578;2023-12-07T07:53:49;20.40;;;15.73;;
14377;SDS011;7272;53.668;9.578;2023-12-07T07:56:51;16.40;;;13.90;;
14377;SDS011;7272;53.668;9.578;2023-12-07T07:59:52;18.87;;;13.77;;
14377;SDS011;7272;53.668;9.578;2023-12-07T08:02:54;20.43;;;15.27;;
14377;SDS011;7272;53.668;9.578;2023-12-07T08:05:56;20.80;;;15.87;;
14377;SDS011;7272;53.668;9.578;2023-12-07T08:08:57;19.70;;;14.47;;
14377;SDS011;7272;53.668;9.578;2023-12-07T08:11:58;20.03;;;14.57;;
14377;SDS011;7272;53.668;9.578;2023-12-07T08:15:00;21.67;;;16.13;;
14377;SDS011;7272;53.668;9.578;2023-12-07T08:18:02;28.17;;;19.07;;
14377;SDS011;7272;53.668;9.578;2023-12-07T08:21:03;28.07;;;17.47;;
14377;SDS011;7272;53.668;9.578;2023-12-07T08:24:05;27.53;;;17.17;;
14377;SDS011;7272;53.668;9.578;2023-12-07T08:27:06;21.50;;;14.33;;
14377;SDS011;7272;53.668;9.578;2023-12-07T08:30:08;24.13;;;16.00;;
14377;SDS011;7272;53.668;9.578;2023-12-07T08:33:10;21.73;;;13.87;;
14377;SDS011;7272;53.668;9.578;2023-12-07T08:36:11;26.23;;;15.37;;
14377;SDS011;7272;53.668;9.578;2023-12-07T08:39:12;28.63;;;16.23;;
14377;SDS011;7272;53.668;9.578;2023-12-07T08:42:14;26.93;;;16.03;;
14377;SDS011;7272;53.668;9.578;2023-12-07T08:45:15;19.90;;;13.00;;
14377;SDS011;7272;53.668;9.578;2023-12-07T08:48:17;32.73;;;16.10;;
14377;SDS011;7272;53.668;9.578;2023-12-07T08:51:19;21.73;;;14.60;;
14377;SDS011;7272;53.668;9.578;2023-12-07T08:54:20;49.60;;;17.07;;
14377;SDS011;7272;53.668;9.578;2023-12-07T08:57:21;44.67;;;16.27;;
14377;SDS011;7272;53.668;9.578;2023-12-07T09:00:23;25.70;;;14.37;;
14377;SDS011;7272;53.668;9.578;2023-12-07T09:03:25;29.70;;;15.87;;
14377;SDS011;7272;53.668;9.578;2023-12-07T09:06:31;52.97;;;16.93;;
14377;SDS011;7272;53.668;9.578;2023-12-07T09:09:32;40.60;;;15.27;;
14377;SDS011;7272;53.668;9.578;2023-12-07T09:12:34;45.57;;;15.60;;
14377;SDS011;7272;53.668;9.578;2023-12-07T09:15:36;83.00;;;18.50;;
14377;SDS011;7272;53.668;9.578;2023-12-07T09:18:38;67.83;;;17.43;;
14377;SDS011;7272;53.668;9.578;2023-12-07T09:21:39;49.17;;;15.87;;
14377;SDS011;7272;53.668;9.578;2023-12-07T09:24:40;90.20;;;18.50;;
14377;SDS011;7272;53.668;9.578;2023-12-07T09:27:42;68.97;;;17.60;;
14377;SDS011;7272;53.668;9.578;2023-12-07T09:30:43;80.23;;;18.63;;
14377;SDS011;7272;53.668;9.578;2023-12-07T09:33:45;51.97;;;15.43;;
14377;SDS011;7272;53.668;9.578;2023-12-07T09:36:46;60.47;;;15.77;;
14377;SDS011;7272;53.668;9.578;2023-12-07T09:39:47;18.63;;;10.50;;
14377;SDS011;7272;53.668;9.578;2023-12-07T09:42:48;53.93;;;16.17;;
14377;SDS011;7272;53.668;9.578;2023-12-07T09:45:51;57.97;;;17.40;;
14377;SDS011;7272;53.668;9.578;2023-12-07T09:48:55;27.77;;;12.83;;
14377;SDS011;7272;53.668;9.578;2023-12-07T09:51:56;52.67;;;13.00;;
14377;SDS011;7272;53.668;9.578;2023-12-07T09:54:58;63.80;;;16.67;;
14377;SDS011;7272;53.668;9.578;2023-12-07T09:58:02;38.53;;;11.80;;
14377;SDS011;7272;53.668;9.578;2023-12-07T10:01:05;45.40;;;14.53;;
14377;SDS011;7272;53.668;9.578;2023-12-07T10:04:16;43.60;;;15.80;;
14377;SDS011;7272;53.668;9.578;2023-12-07T10:07:19;55.67;;;14.93;;
14377;SDS011;7272;53.668;9.578;2023-12-07T10:10:34;39.03;;;13.93;;
14377;SDS011;7272;53.668;9.578;2023-12-07T10:13:37;47.17;;;14.27;;
14377;SDS011;7272;53.668;9.578;2023-12-07T10:16:40;36.50;;;13.13;;
14377;SDS011;7272;53.668;9.578;2023-12-07T10:20:06;31.97;;;12.23;;
14377;SDS011;7272;53.668;9.578;2023-12-07T10:23:09;17.40;;;10.87;;
14377;SDS011;7272;53.668;9.578;2023-12-07T10:26:11;41.97;;;14.03;;
14377;SDS011;7272;53.668;9.578;2023-12-07T10:29:13;36.33;;;14.13;;
14377;SDS011;7272;53.668;9.578;2023-12-07T10:32:15;31.53;;;14.73;;
14377;SDS011;7272;53.668;9.578;2023-12-07T10:35:17;35.37;;;13.40;;
14377;SDS011;7272;53.668;9.578;2023-12-07T10:38:19;36.27;;;13.07;;
14377;SDS011;7272;53.668;9.578;2023-12-07T10:41:20;49.40;;;14.83;;
14377;SDS011;7272;53.668;9.578;2023-12-07T10:44:23;36.27;;;13.03;;
14377;SDS011;7272;53.668;9.578;2023-12-07T10:47:28;57.13;;;14.60;;
14377;SDS011;7272;53.668;9.578;2023-12-07T10:50:29;33.87;;;12.70;;
14377;SDS011;7272;53.668;9.578;2023-12-07T10:53:37;34.63;;;12.77;;
14377;SDS011;7272;53.668;9.578;2023-12-07T10:56:43;41.47;;;14.17;;
14377;SDS011;7272;53.668;9.578;2023-12-07T10:59:45;38.93;;;14.00;;
14377;SDS011;7272;53.668;9.578;2023-12-07T11:02:51;47.50;;;14.67;;
14377;SDS011;7272;53.668;9.578;2023-12-07T11:05:52;35.80;;;15.00;;
14377;SDS011;7272;53.668;9.578;2023-12-07T11:08:54;21.93;;;12.80;;
14377;SDS011;7272;53.668;9.578;2023-12-07T11:12:00;16.73;;;11.07;;
14377;SDS011;7272;53.668;9.578;2023-12-07T11:15:06;28.83;;;13.33;;
14377;SDS011;7272;53.668;9.578;2023-12-07T11:18:09;27.13;;;15.03;;
14377;SDS011;7272;53.668;9.578;2023-12-07T11:21:13;27.73;;;13.03;;
14377;SDS011;7272;53.668;9.578;2023-12-07T11:24:16;50.57;;;15.77;;
14377;SDS011;7272;53.668;9.578;2023-12-07T11:27:17;27.60;;;14.07;;
14377;SDS011;7272;53.668;9.578;2023-12-07T11:30:18;22.40;;;12.40;;
14377;SDS011;7272;53.668;9.578;2023-12-07T11:33:21;27.83;;;13.20;;
14377;SDS011;7272;53.668;9.578;2023-12-07T11:36:22;29.30;;;14.53;;
14377;SDS011;7272;53.668;9.578;2023-12-07T11:39:23;31.17;;;14.23;;
14377;SDS011;7272;53.668;9.578;2023-12-07T11:42:27;37.90;;;14.90;;
14377;SDS011;7272;53.668;9.578;2023-12-07T11:45:37;25.23;;;12.47;;
14377;SDS011;7272;53.668;9.578;2023-12-07T11:48:42;19.73;;;11.33;;
14377;SDS011;7272;53.668;9.578;2023-12-07T11:51:47;22.03;;;12.80;;
14377;SDS011;7272;53.668;9.578;2023-12-07T11:54:49;32.80;;;15.40;;
14377;SDS011;7272;53.668;9.578;2023-12-07T11:57:50;44.63;;;18.30;;
14377;SDS011;7272;53.668;9.578;2023-12-07T12:00:52;34.27;;;15.83;;
14377;SDS011;7272;53.668;9.578;2023-12-07T12:03:57;34.73;;;15.30;;
14377;SDS011;7272;53.668;9.578;2023-12-07T12:06:59;30.83;;;15.33;;
14377;SDS011;7272;53.668;9.578;2023-12-07T12:10:02;36.03;;;15.40;;
14377;SDS011;7272;53.668;9.578;2023-12-07T12:13:04;34.70;;;13.67;;
14377;SDS011;7272;53.668;9.578;2023-12-07T12:16:06;52.33;;;17.13;;
14377;SDS011;7272;53.668;9.578;2023-12-07T12:19:08;29.03;;;15.97;;
14377;SDS011;7272;53.668;9.578;2023-12-07T12:22:10;34.70;;;14.37;;
14377;SDS011;7272;53.668;9.578;2023-12-07T12:25:11;26.57;;;15.90;;
14377;SDS011;7272;53.668;9.578;2023-12-07T12:28:14;29.77;;;15.30;;
14377;SDS011;7272;53.668;9.578;2023-12-07T12:31:17;30.13;;;17.37;;
14377;SDS011;7272;53.668;9.578;2023-12-07T12:34:21;25.13;;;15.00;;
14377;SDS011;7272;53.668;9.578;2023-12-07T12:37:22;20.40;;;15.00;;
14377;SDS011;7272;53.668;9.578;2023-12-07T12:40:26;29.33;;;17.83;;
14377;SDS011;7272;53.668;9.578;2023-12-07T12:43:30;23.00;;;14.77;;
14377;SDS011;7272;53.668;9.578;2023-12-07T12:46:33;24.83;;;16.60;;
14377;SDS011;7272;53.668;9.578;2023-12-07T12:49:35;27.83;;;17.27;;
14377;SDS011;7272;53.668;9.578;2023-12-07T12:52:37;21.67;;;15.13;;
14377;SDS011;7272;53.668;9.578;2023-12-07T12:55:40;26.13;;;16.83;;
14377;SDS011;7272;53.668;9.578;2023-12-07T12:58:41;21.27;;;14.50;;
14377;SDS011;7272;53.668;9.578;2023-12-07T13:01:43;16.07;;;11.67;;
14377;SDS011;7272;53.668;9.578;2023-12-07T13:04:45;21.57;;;14.20;;
14377;SDS011;7272;53.668;9.578;2023-12-07T13:07:46;14.47;;;10.50;;
14377;SDS011;7272;53.668;9.578;2023-12-07T13:10:48;15.83;;;12.17;;
14377;SDS011;7272;53.668;9.578;2023-12-07T13:13:50;15.90;;;12.43;;
14377;SDS011;7272;53.668;9.578;2023-12-07T13:16:52;18.87;;;13.60;;
14377;SDS011;7272;53.668;9.578;2023-12-07T13:19:54;16.07;;;12.03;;
14377;SDS011;7272;53.668;9.578;2023-12-07T13:22:55;21.47;;;14.83;;
14377;SDS011;7272;53.668;9.578;2023-12-07T13:25:56;17.30;;;13.40;;
14377;SDS011;7272;53.668;9.578;2023-12-07T13:28:58;19.30;;;13.43;;
14377;SDS011;7272;53.668;9.578;2023-12-07T13:31:59;20.50;;;13.60;;
14377;SDS011;7272;53.668;9.578;2023-12-07T13:35:01;16.97;;;12.63;;
14377;SDS011;7272;53.668;9.578;2023-12-07T13:38:02;17.87;;;12.03;;
14377;SDS011;7272;53.668;9.578;2023-12-07T13:41:04;15.70;;;12.23;;
14377;SDS011;7272;53.668;9.578;2023-12-07T13:44:05;16.67;;;13.20;;
14377;SDS011;7272;53.668;9.578;2023-12-07T13:47:07;23.60;;;15.97;;
14377;SDS011;7272;53.668;9.578;2023-12-07T13:50:10;20.40;;;14.27;;
14377;SDS011;7272;53.668;9.578;2023-12-07T13:53:12;16.80;;;12.47;;
14377;SDS011;7272;53.668;9.578;2023-12-07T13:56:13;20.10;;;14.90;;
14377;SDS011;7272;53.668;9.578;2023-12-07T13:59:14;24.13;;;14.60;;
14377;SDS011;7272;53.668;9.578;2023-12-07T14:02:15;21.17;;;14.57;;
14377;SDS011;7272;53.668;9.578;2023-12-07T14:05:18;25.83;;;17.93;;
14377;SDS011;7272;53.668;9.578;2023-12-07T14:08:19;21.80;;;15.13;;
14377;SDS011;7272;53.668;9.578;2023-12-07T14:11:20;19.10;;;13.90;;
14377;SDS011;7272;53.668;9.578;2023-12-07T14:14:21;17.43;;;13.03;;
14377;SDS011;7272;53.668;9.578;2023-12-07T14:17:22;20.23;;;13.77;;
14377;SDS011;7272;53.668;9.578;2023-12-07T14:20:24;21.00;;;15.23;;
14377;SDS011;7272;53.668;9.578;2023-12-07T14:23:28;22.10;;;14.90;;
14377;SDS011;7272;53.668;9.578;2023-12-07T14:26:29;21.57;;;15.63;;
14377;SDS011;7272;53.668;9.578;2023-12-07T14:29:30;27.43;;;18.23;;
14377;SDS011;7272;53.668;9.578;2023-12-07T14:32:32;20.73;;;15.30;;
14377;SDS011;7272;53.668;9.578;2023-12-07T14:35:34;20.40;;;13.90;;
14377;SDS011;7272;53.668;9.578;2023-12-07T14:38:35;28.23;;;18.33;;
14377;SDS011;7272;53.668;9.578;2023-12-07T14:41:36;25.83;;;16.77;;
14377;SDS011;7272;53.668;9.578;2023-12-07T14:44:39;20.50;;;14.70;;
14377;SDS011;7272;53.668;9.578;2023-12-07T14:47:40;17.70;;;12.63;;
14377;SDS011;7272;53.668;9.578;2023-12-07T14:50:43;23.23;;;14.57;;
14377;SDS011;7272;53.668;9.578;2023-12-07T14:53:44;22.33;;;14.30;;
14377;SDS011;7272;53.668;9.578;2023-12-07T14:56:46;23.60;;;16.47;;
14377;SDS011;7272;53.668;9.578;2023-12-07T14:59:47;27.23;;;17.97;;
14377;SDS011;7272;53.668;9.578;2023-12-07T15:02:50;21.30;;;14.40;;
14377;SDS011;7272;53.668;9.578;2023-12-07T15:05:53;23.73;;;15.13;;
14377;SDS011;7272;53.668;9.578;2023-12-07T15:08:54;18.73;;;12.57;;
14377;SDS011;7272;53.668;9.578;2023-12-07T15:11:56;21.37;;;13.57;;
14377;SDS011;7272;53.668;9.578;2023-12-07T15:14:57;28.40;;;17.43;;
14377;SDS011;7272;53.668;9.578;2023-12-07T15:17:58;22.63;;;14.30;;
14377;SDS011;7272;53.668;9.578;2023-12-07T15:21:00;22.77;;;14.93;;
14377;SDS011;7272;53.668;9.578;2023-12-07T15:24:01;25.67;;;15.53;;
14377;SDS011;7272;53.668;9.578;2023-12-07T15:27:03;22.33;;;14.73;;
14377;SDS011;7272;53.668;9.578;2023-12-07T15:30:05;25.97;;;16.83;;
14377;SDS011;7272;53.668;9.578;2023-12-07T15:33:10;24.53;;;16.50;;
14377;SDS011;7272;53.668;9.578;2023-12-07T15:36:11;28.37;;;19.13;;
14377;SDS011;7272;53.668;9.578;2023-12-07T15:39:13;24.50;;;15.17;;
14377;SDS011;7272;53.668;9.578;2023-12-07T15:42:14;25.83;;;16.43;;
14377;SDS011;7272;53.668;9.578;2023-12-07T15:45:15;24.13;;;14.77;;
14377;SDS011;7272;53.668;9.578;2023-12-07T15:48:17;20.20;;;13.93;;
14377;SDS011;7272;53.668;9.578;2023-12-07T15:51:20;19.67;;;13.00;;
14377;SDS011;7272;53.668;9.578;2023-12-07T15:54:21;25.47;;;16.70;;
14377;SDS011;7272;53.668;9.578;2023-12-07T15:57:22;23.80;;;15.83;;
14377;SDS011;7272;53.668;9.578;2023-12-07T16:00:24;21.20;;;13.77;;
14377;SDS011;7272;53.668;9.578;2023-12-07T16:03:26;25.87;;;16.30;;
14377;SDS011;7272;53.668;9.578;2023-12-07T16:06:29;20.90;;;14.83;;
14377;SDS011;7272;53.668;9.578;2023-12-07T16:09:30;20.27;;;14.97;;
14377;SDS011;7272;53.668;9.578;2023-12-07T16:12:32;21.17;;;14.50;;
14377;SDS011;7272;53.668;9.578;2023-12-07T16:15:33;20.40;;;13.33;;
14377;SDS011;7272;53.668;9.578;2023-12-07T16:18:35;21.00;;;13.10;;
14377;SDS011;7272;53.668;9.578;2023-12-07T16:21:36;26.17;;;15.47;;
14377;SDS011;7272;53.668;9.578;2023-12-07T16:24:37;19.50;;;13.70;;
14377;SDS011;7272;53.668;9.578;2023-12-07T16:27:39;22.80;;;14.67;;
14377;SDS011;7272;53.668;9.578;2023-12-07T16:30:40;21.83;;;13.50;;
14377;SDS011;7272;53.668;9.578;2023-12-07T16:33:41;21.40;;;14.23;;
14377;SDS011;7272;53.668;9.578;2023-12-07T16:36:43;20.73;;;14.13;;
14377;SDS011;7272;53.668;9.578;2023-12-07T16:39:45;19.87;;;12.50;;
14377;SDS011;7272;53.668;9.578;2023-12-07T16:42:48;21.23;;;13.60;;
14377;SDS011;7272;53.668;9.578;2023-12-07T16:45:49;20.20;;;13.87;;
14377;SDS011;7272;53.668;9.578;2023-12-07T16:48:51;21.10;;;14.67;;
14377;SDS011;7272;53.668;9.578;2023-12-07T16:51:53;18.27;;;12.90;;
14377;SDS011;7272;53.668;9.578;2023-12-07T16:54:54;21.00;;;14.37;;
14377;SDS011;7272;53.668;9.578;2023-12-07T16:57:55;22.17;;;14.33;;
14377;SDS011;7272;53.668;9.578;2023-12-07T17:00:56;21.13;;;14.87;;
14377;SDS011;7272;53.668;9.578;2023-12-07T17:03:57;19.57;;;13.57;;
14377;SDS011;7272;53.668;9.578;2023-12-07T17:06:59;25.00;;;15.80;;
14377;SDS011;7272;53.668;9.578;2023-12-07T17:10:00;22.43;;;14.60;;
14377;SDS011;7272;53.668;9.578;2023-12-07T17:13:01;20.40;;;13.77;;
14377;SDS011;7272;53.668;9.578;2023-12-07T17:16:03;21.00;;;14.77;;
14377;SDS011;7272;53.668;9.578;2023-12-07T17:19:04;21.87;;;14.63;;
14377;SDS011;7272;53.668;9.578;2023-12-07T17:22:06;17.27;;;12.60;;
14377;SDS011;7272;53.668;9.578;2023-12-07T17:25:08;21.90;;;13.40;;
14377;SDS011;7272;53.668;9.578;2023-12-07T17:28:10;24.07;;;15.57;;
14377;SDS011;7272;53.668;9.578;2023-12-07T17:31:11;20.50;;;13.43;;
14377;SDS011;7272;53.668;9.578;2023-12-07T17:34:12;19.20;;;13.87;;
14377;SDS011;7272;53.668;9.578;2023-12-07T17:37:14;27.30;;;17.40;;
14377;SDS011;7272;53.668;9.578;2023-12-07T17:40:15;22.63;;;15.77;;
14377;SDS011;7272;53.668;9.578;2023-12-07T17:43:16;21.20;;;14.80;;
14377;SDS011;7272;53.668;9.578;2023-12-07T17:46:17;23.57;;;14.43;;
14377;SDS011;7272;53.668;9.578;2023-12-07T17:49:19;27.67;;;17.27;;
14377;SDS011;7272;53.668;9.578;2023-12-07T17:52:21;18.23;;;12.67;;
14377;SDS011;7272;53.668;9.578;2023-12-07T17:55:22;24.63;;;14.80;;
14377;SDS011;7272;53.668;9.578;2023-12-07T17:58:23;17.67;;;12.90;;
14377;SDS011;7272;53.668;9.578;2023-12-07T18:01:24;19.60;;;13.83;;